Terminal Aerodrome Forecast
Issued by NWS Kansas City/Pleasant Hill, MO

Home | Current Version | Previous Version | Text Only | Print | Product List | Glossary On
Versions: 1 2 3 4 5 6 7 8 9 10 11 12 13 14
000
FTUS43 KEAX 212334
TAFMCI
TAF
KMCI 212334Z 2200/2224 05010KT P6SM OVC110
      TEMPO 2200/2201 BKN015
     FM220700 06010KT 5SM -SNPL OVC025
     FM220900 06009KT 5SM -FZRA OVC008
     FM221400 08009KT P6SM OVC008
     FM222100 11008KT 5SM -RA BR OVC006=

USA.gov is the U.S. government's official web portal to all federal, state and local government web resources and services.